Time;durP1;ratioP1;P1;durP2;ratioP2;P2;SDS_P1;SDS_P2;PMS_P1;PMS_P2;Temp;Humidity;BMP_temperature;BMP_pressure;BME280_temperature;BME280_humidity;BME280_pressure;Samples;Min_cycle;Max_cycle;Signal;HPM_P1;HPM_P2
2021/05/31 00:01:59;;;;;;;3.25;0.80;;;17.80;65.40;;;;;;4355294;32;20065;-44
2021/05/31 00:04:26;;;;;;;8.40;1.62;;;17.90;65.30;;;;;;4343328;32;20127;-44
2021/05/31 00:07:17;;;;;;;5.62;1.60;;;17.90;65.30;;;;;;4355900;32;20514;-44
2021/05/31 00:09:43;;;;;;;8.43;2.08;;;17.90;65.30;;;;;;4355930;32;20074;-44
2021/05/31 00:12:13;;;;;;;6.32;1.92;;;18.00;65.20;;;;;;4355585;32;20074;-45
2021/05/31 00:14:39;;;;;;;5.62;1.42;;;18.10;64.70;;;;;;4367051;32;20066;-44
2021/05/31 00:17:06;;;;;;;6.10;1.80;;;18.20;64.50;;;;;;4387831;32;20120;-43
2021/05/31 00:19:32;;;;;;;1.30;0.60;;;18.30;64.30;;;;;;4374274;32;20110;-44
2021/05/31 00:21:59;;;;;;;0.93;0.62;;;18.30;63.90;;;;;;4388046;32;20458;-44
2021/05/31 00:24:26;;;;;;;2.53;1.05;;;18.40;63.70;;;;;;4388206;32;20602;-44
2021/05/31 00:26:53;;;;;;;2.70;0.88;;;18.50;63.60;;;;;;4387716;32;20086;-44
2021/05/31 00:29:23;;;;;;;2.53;1.23;;;18.50;63.20;;;;;;4387965;32;20061;-44
2021/05/31 00:31:56;;;;;;;4.10;0.93;;;18.60;62.80;;;;;;4388194;32;20058;-43
2021/05/31 00:34:22;;;;;;;3.62;1.35;;;18.60;62.60;;;;;;4387989;32;20076;-43
2021/05/31 00:36:49;;;;;;;3.95;1.02;;;18.60;62.30;;;;;;4373637;32;20058;-44
2021/05/31 00:39:15;;;;;;;2.67;0.75;;;18.60;62.10;;;;;;4388211;32;20086;-43
2021/05/31 00:41:45;;;;;;;6.75;1.48;;;18.60;61.70;;;;;;4388792;32;20158;-44
2021/05/31 00:44:12;;;;;;;8.68;0.60;;;18.60;61.90;;;;;;4390805;32;20073;-43
2021/05/31 00:46:38;;;;;;;1.77;0.55;;;18.60;61.60;;;;;;4404237;32;20576;-43
2021/05/31 00:49:05;;;;;;;4.57;1.25;;;18.60;61.70;;;;;;4405709;32;20054;-44
2021/05/31 00:51:32;;;;;;;6.05;1.15;;;18.60;61.80;;;;;;4405352;32;20490;-43
2021/05/31 00:53:59;;;;;;;4.62;1.17;;;18.60;61.50;;;;;;4405511;32;20065;-43
2021/05/31 00:56:26;;;;;;;3.55;1.27;;;18.50;61.40;;;;;;4391635;32;20061;-43
2021/05/31 00:58:52;;;;;;;5.20;1.35;;;18.50;61.40;;;;;;4378700;32;20073;-43
2021/05/31 01:01:21;;;;;;;1.62;0.60;;;18.50;61.40;;;;;;4405787;32;20098;-44
2021/05/31 01:03:48;;;;;;;3.40;1.50;;;18.50;61.50;;;;;;4391912;32;20153;-43
2021/05/31 01:06:17;;;;;;;2.62;1.55;;;18.50;61.60;;;;;;4405773;32;20077;-44
2021/05/31 01:08:56;;;;;;;0.70;0.68;;;18.50;61.70;;;;;;4379920;32;20065;-44
2021/05/31 01:11:38;;;;;;;1.62;1.00;;;18.50;61.70;;;;;;4379869;32;20160;-44
2021/05/31 01:14:11;;;;;;;5.30;1.55;;;18.50;62.00;;;;;;4404983;32;20135;-43
2021/05/31 01:16:39;;;;;;;6.57;0.95;;;18.50;62.10;;;;;;4391420;32;20442;-44
2021/05/31 01:19:15;;;;;;;5.57;1.50;;;18.50;62.10;;;;;;4391444;32;20071;-43
2021/05/31 01:22:05;;;;;;;3.92;1.25;;;18.50;62.20;;;;;;4391816;32;20569;-43
2021/05/31 01:25:04;;;;;;;12.88;1.52;;;18.50;61.90;;;;;;4405178;32;20078;-43
2021/05/31 01:28:12;;;;;;;3.80;1.37;;;18.50;61.90;;;;;;4327635;33;20497;-44
2021/05/31 01:30:46;;;;;;;10.50;2.85;;;18.40;61.90;;;;;;4327935;33;20102;-44
2021/05/31 01:33:20;;;;;;;4.45;1.87;;;18.40;62.00;;;;;;4315783;33;20074;-43
2021/05/31 01:35:47;;;;;;;2.53;0.62;;;18.40;62.20;;;;;;4316050;33;20233;-44
2021/05/31 01:38:17;;;;;;;6.93;0.77;;;18.50;62.10;;;;;;4315433;33;20153;-44
2021/05/31 01:40:43;;;;;;;3.25;1.58;;;18.50;62.20;;;;;;4315783;33;20094;-43
2021/05/31 01:43:10;;;;;;;2.92;1.40;;;18.50;62.10;;;;;;4315487;33;20079;-43
2021/05/31 01:45:36;;;;;;;6.25;1.67;;;18.40;62.00;;;;;;4288959;33;20071;-43
2021/05/31 01:48:04;;;;;;;4.22;2.72;;;18.50;62.20;;;;;;4277073;33;20063;-44
2021/05/31 01:50:30;;;;;;;13.52;1.87;;;18.50;62.00;;;;;;4301233;33;20524;-43
2021/05/31 01:52:57;;;;;;;8.25;2.72;;;18.40;61.90;;;;;;4288309;33;20091;-43
2021/05/31 01:55:24;;;;;;;10.40;3.67;;;18.40;61.80;;;;;;4288617;33;20098;-44
2021/05/31 01:57:50;;;;;;;11.65;3.30;;;18.40;61.80;;;;;;4313091;33;20075;-43
2021/05/31 02:00:18;;;;;;;9.30;2.80;;;18.30;61.90;;;;;;4288829;33;20071;-43
2021/05/31 02:02:44;;;;;;;6.00;1.42;;;18.20;61.90;;;;;;4312841;33;20099;-42
2021/05/31 02:05:14;;;;;;;7.80;1.92;;;18.20;61.90;;;;;;4365045;32;20081;-40
2021/05/31 02:07:41;;;;;;;4.50;2.15;;;18.30;62.20;;;;;;4389530;32;20069;-41
2021/05/31 02:10:09;;;;;;;2.03;1.20;;;18.30;62.00;;;;;;4389728;32;20062;-41
2021/05/31 02:13:00;;;;;;;2.62;1.45;;;18.30;62.10;;;;;;4389704;32;20150;-39
2021/05/31 02:15:41;;;;;;;6.45;1.33;;;18.40;61.90;;;;;;4382115;32;20629;-40
2021/05/31 02:18:28;;;;;;;5.93;1.87;;;18.40;61.50;;;;;;4389363;32;20487;-40
2021/05/31 02:21:02;;;;;;;3.08;1.58;;;18.40;61.70;;;;;;4389612;32;20088;-40
2021/05/31 02:23:29;;;;;;;4.35;2.45;;;18.30;61.50;;;;;;4375559;32;20058;-36
2021/05/31 02:25:55;;;;;;;6.32;1.48;;;18.40;61.50;;;;;;4375557;32;20066;-37
2021/05/31 02:28:23;;;;;;;7.18;2.40;;;18.30;61.50;;;;;;4350691;32;20093;-37
2021/05/31 02:30:49;;;;;;;7.80;4.03;;;18.40;61.40;;;;;;4375304;32;20522;-39
2021/05/31 02:33:15;;;;;;;7.82;1.83;;;18.40;61.10;;;;;;4389256;32;20070;-37
2021/05/31 02:35:42;;;;;;;2.50;1.17;;;18.40;61.00;;;;;;4388981;32;20092;-40
2021/05/31 02:38:08;;;;;;;5.68;2.25;;;18.50;60.90;;;;;;4389220;32;20534;-35
2021/05/31 02:40:36;;;;;;;3.92;1.87;;;18.50;60.80;;;;;;4388619;32;20077;-37
2021/05/31 02:43:05;;;;;;;7.60;2.25;;;18.60;60.60;;;;;;4389026;32;20062;-39
2021/05/31 02:45:31;;;;;;;3.42;1.30;;;18.60;60.20;;;;;;4389272;32;20073;-38
2021/05/31 02:47:58;;;;;;;7.15;1.58;;;18.70;60.10;;;;;;4387387;32;20054;-36
2021/05/31 02:50:28;;;;;;;1.98;0.68;;;18.70;59.80;;;;;;4389347;32;20077;-36
2021/05/31 02:52:55;;;;;;;5.93;2.35;;;18.70;59.80;;;;;;4389048;32;20247;-37
2021/05/31 02:55:23;;;;;;;6.62;1.30;;;18.70;59.50;;;;;;4387776;32;20624;-35
2021/05/31 02:57:50;;;;;;;1.33;0.55;;;18.80;59.40;;;;;;4388674;32;20058;-36
2021/05/31 03:00:22;;;;;;;6.35;2.12;;;18.90;59.20;;;;;;4389031;32;20090;-37
2021/05/31 03:02:49;;;;;;;9.98;2.45;;;19.00;59.40;;;;;;4388608;32;20529;-36
2021/05/31 03:05:18;;;;;;;7.15;2.87;;;19.10;58.40;;;;;;4386801;32;20085;-36
2021/05/31 03:07:44;;;;;;;6.07;1.33;;;19.10;57.90;;;;;;4387181;32;20142;-35
2021/05/31 03:10:12;;;;;;;4.35;0.93;;;19.20;57.80;;;;;;4388688;32;20173;-34
2021/05/31 03:12:39;;;;;;;8.00;1.70;;;19.20;57.60;;;;;;4388499;32;20166;-37
2021/05/31 03:15:07;;;;;;;7.28;2.25;;;19.30;57.40;;;;;;4387212;32;20133;-35
2021/05/31 03:17:33;;;;;;;7.65;1.67;;;19.40;57.00;;;;;;4388771;32;20264;-34
2021/05/31 03:20:00;;;;;;;2.25;0.75;;;19.40;56.80;;;;;;4388274;32;20142;-35
2021/05/31 03:22:26;;;;;;;7.55;1.12;;;19.40;56.60;;;;;;4388865;32;20142;-35
2021/05/31 03:24:52;;;;;;;6.65;2.25;;;19.40;56.50;;;;;;4388201;32;20061;-36
2021/05/31 03:27:19;;;;;;;5.57;1.85;;;19.40;56.40;;;;;;4388146;32;20137;-34
2021/05/31 03:29:45;;;;;;;8.73;2.72;;;19.40;56.20;;;;;;4388297;32;20101;-34
2021/05/31 03:32:12;;;;;;;8.35;2.78;;;19.40;56.10;;;;;;4388483;32;20074;-35
2021/05/31 03:34:38;;;;;;;7.32;1.92;;;19.30;56.00;;;;;;4388280;32;20517;-36
2021/05/31 03:37:04;;;;;;;2.55;1.50;;;19.20;56.20;;;;;;4388287;32;20099;-35
2021/05/31 03:39:31;;;;;;;6.30;3.60;;;19.20;56.40;;;;;;4388183;32;20228;-39
2021/05/31 03:41:57;;;;;;;6.60;2.47;;;19.20;55.60;;;;;;4386622;32;20533;-38
2021/05/31 03:44:24;;;;;;;3.67;1.77;;;19.20;55.50;;;;;;4388266;32;20080;-35
2021/05/31 03:46:50;;;;;;;8.57;3.65;;;19.10;55.30;;;;;;4388015;32;20555;-39
2021/05/31 03:49:17;;;;;;;8.20;1.83;;;19.10;55.00;;;;;;4388252;32;20069;-35
2021/05/31 03:51:45;;;;;;;4.40;1.33;;;19.20;55.00;;;;;;4387982;32;20098;-39
2021/05/31 03:54:13;;;;;;;6.85;2.55;;;19.20;55.10;;;;;;4387942;32;20617;-38
2021/05/31 03:56:39;;;;;;;6.20;3.05;;;19.30;54.80;;;;;;4387899;32;20070;-39
2021/05/31 03:59:07;;;;;;;7.87;3.85;;;19.40;54.40;;;;;;4387960;32;20072;-40
2021/05/31 04:01:34;;;;;;;6.10;4.15;;;19.30;53.10;;;;;;4387887;32;20078;-41
2021/05/31 04:04:00;;;;;;;5.00;2.72;;;19.20;53.20;;;;;;4386683;32;20053;-39
2021/05/31 04:07:20;;;;;;;4.50;2.22;;;19.30;53.30;;;;;;4388075;32;20070;-42
2021/05/31 04:12:13;;;;;;;5.82;3.10;;;19.30;53.10;;;;;;4387665;32;20332;-40
2021/05/31 04:14:41;;;;;;;4.95;1.87;;;19.40;53.00;;;;;;4387745;32;20054;-41
2021/05/31 04:17:07;;;;;;;6.87;2.70;;;19.40;52.60;;;;;;4388638;32;20061;-41
2021/05/31 04:19:34;;;;;;;3.30;1.62;;;19.40;52.40;;;;;;4391051;32;20069;-40
2021/05/31 04:22:00;;;;;;;2.50;0.70;;;19.50;52.60;;;;;;4390925;32;20051;-44
2021/05/31 04:24:26;;;;;;;2.80;1.87;;;19.60;52.60;;;;;;4391151;32;20462;-41
2021/05/31 04:26:53;;;;;;;6.07;2.62;;;19.60;52.30;;;;;;4376920;32;20073;-43
2021/05/31 04:29:19;;;;;;;6.07;1.65;;;19.70;52.10;;;;;;4391169;32;20098;-38
2021/05/31 04:31:46;;;;;;;7.75;2.67;;;19.80;52.10;;;;;;4357883;32;20086;-41
2021/05/31 04:34:13;;;;;;;6.47;2.35;;;19.90;51.90;;;;;;4357975;32;20100;-39
2021/05/31 04:36:41;;;;;;;3.05;1.92;;;19.90;51.00;;;;;;4358200;32;20069;-37
2021/05/31 04:39:08;;;;;;;9.93;2.37;;;19.80;50.70;;;;;;4357880;32;20284;-40
2021/05/31 04:41:36;;;;;;;1.15;0.60;;;19.90;51.00;;;;;;4358299;32;20183;-37
2021/05/31 04:44:03;;;;;;;5.05;2.47;;;19.80;50.70;;;;;;4358170;32;20070;-37
2021/05/31 04:46:29;;;;;;;7.03;1.50;;;19.80;50.90;;;;;;4371164;32;20153;-37
2021/05/31 04:48:56;;;;;;;8.48;2.67;;;19.90;50.80;;;;;;4372942;32;20552;-43
2021/05/31 04:51:24;;;;;;;6.87;3.50;;;19.90;50.50;;;;;;4373143;32;20097;-41
2021/05/31 04:53:52;;;;;;;6.40;3.87;;;19.90;50.50;;;;;;4372905;32;20081;-41
2021/05/31 04:56:19;;;;;;;10.50;4.70;;;19.80;50.30;;;;;;4360901;32;20061;-40
2021/05/31 04:58:45;;;;;;;5.93;2.95;;;19.80;50.40;;;;;;4372966;32;20572;-39
2021/05/31 05:01:12;;;;;;;7.65;4.22;;;19.80;50.60;;;;;;4372818;32;20070;-39
2021/05/31 05:03:38;;;;;;;5.40;2.37;;;19.70;50.50;;;;;;4387600;32;20133;-41
2021/05/31 05:06:05;;;;;;;6.80;3.83;;;19.70;50.80;;;;;;4390161;32;20089;-41
2021/05/31 05:08:31;;;;;;;10.23;3.28;;;19.80;51.00;;;;;;4390828;32;20062;-40
2021/05/31 05:10:58;;;;;;;7.50;3.75;;;19.90;50.80;;;;;;4390337;32;20129;-36
2021/05/31 05:13:24;;;;;;;4.82;2.30;;;20.00;50.70;;;;;;4390004;32;20169;-38
2021/05/31 05:15:51;;;;;;;5.00;3.05;;;20.10;50.80;;;;;;4390249;32;20097;-42
2021/05/31 05:18:17;;;;;;;2.08;1.65;;;20.30;49.90;;;;;;4390128;32;20069;-38
2021/05/31 05:20:43;;;;;;;10.20;4.70;;;20.40;50.00;;;;;;4390058;32;20180;-37
2021/05/31 05:23:10;;;;;;;3.10;1.70;;;20.50;49.70;;;;;;4390127;32;20512;-36
2021/05/31 05:25:37;;;;;;;7.37;3.20;;;20.60;49.40;;;;;;4376091;32;20521;-39
2021/05/31 05:28:03;;;;;;;10.38;4.43;;;20.60;48.60;;;;;;4389623;32;20074;-37
2021/05/31 05:30:32;;;;;;;7.47;3.22;;;20.70;48.70;;;;;;4376156;32;20529;-36
2021/05/31 05:33:02;;;;;;;3.78;2.00;;;20.60;48.40;;;;;;4390153;32;20180;-35
2021/05/31 05:35:34;;;;;;;14.05;5.25;;;20.70;48.80;;;;;;4376478;32;20138;-41
2021/05/31 05:44:10;;;;;;;8.43;5.85;;;20.90;48.30;;;;;;4389491;32;20058;-39
2021/05/31 05:46:51;;;;;;;7.87;4.12;;;20.80;48.00;;;;;;4383328;32;20069;-37
2021/05/31 05:48:54;;;;;;;11.23;4.50;;;20.70;48.00;;;;;;4388624;32;20511;-37
2021/05/31 05:51:21;;;;;;;13.38;4.50;;;20.80;48.30;;;;;;4389867;32;20066;-35
2021/05/31 05:53:47;;;;;;;6.53;4.57;;;20.80;47.90;;;;;;4387928;32;20062;-39
2021/05/31 05:56:20;;;;;;;6.37;2.85;;;20.80;47.80;;;;;;4389251;32;20485;-36
2021/05/31 05:58:46;;;;;;;6.50;1.95;;;21.00;48.40;;;;;;4389479;32;20066;-36
2021/05/31 06:01:14;;;;;;;5.53;2.95;;;21.10;48.10;;;;;;4389131;32;20074;-35
2021/05/31 06:03:40;;;;;;;7.95;3.25;;;21.20;47.50;;;;;;4387848;32;20069;-35
2021/05/31 06:06:07;;;;;;;9.35;3.35;;;21.20;47.20;;;;;;4387865;32;20141;-35
2021/05/31 06:08:35;;;;;;;7.60;4.12;;;21.20;47.20;;;;;;4389521;32;20486;-39
2021/05/31 06:11:03;;;;;;;6.75;3.55;;;21.30;47.10;;;;;;4390242;32;20150;-36
2021/05/31 06:13:30;;;;;;;1.98;1.50;;;21.30;46.90;;;;;;4389442;32;20058;-35
2021/05/31 06:16:00;;;;;;;10.27;3.87;;;21.30;46.80;;;;;;4389546;32;20116;-35
2021/05/31 06:18:27;;;;;;;5.95;3.28;;;21.30;46.70;;;;;;4389367;32;20061;-36
2021/05/31 06:20:53;;;;;;;10.23;4.75;;;21.40;47.20;;;;;;4389138;32;20082;-39
2021/05/31 06:23:20;;;;;;;9.13;4.87;;;21.50;46.60;;;;;;4389177;32;20181;-35
2021/05/31 06:25:47;;;;;;;8.35;3.40;;;21.50;46.10;;;;;;4389226;32;20063;-38
2021/05/31 06:28:13;;;;;;;4.00;2.83;;;21.50;46.10;;;;;;4388876;32;20149;-40
2021/05/31 06:30:40;;;;;;;9.90;4.50;;;21.60;46.20;;;;;;4388746;32;20466;-38
2021/05/31 06:33:06;;;;;;;8.38;3.15;;;21.60;46.10;;;;;;4389402;32;20486;-36
2021/05/31 06:35:33;;;;;;;7.30;2.37;;;21.60;45.60;;;;;;4389358;32;20082;-36
2021/05/31 06:37:59;;;;;;;5.32;3.22;;;21.70;46.00;;;;;;4389013;32;20148;-36
2021/05/31 06:40:26;;;;;;;6.18;2.65;;;21.70;46.10;;;;;;4388173;32;20671;-39
2021/05/31 06:42:53;;;;;;;20.30;2.15;;;21.70;46.00;;;;;;4389145;32;20066;-35
2021/05/31 06:45:23;;;;;;;5.15;1.92;;;21.70;46.10;;;;;;4384067;32;20085;-37
2021/05/31 06:47:55;;;;;;;10.68;3.75;;;21.70;45.80;;;;;;4388597;32;20530;-39
2021/05/31 06:50:21;;;;;;;5.80;3.30;;;21.70;45.60;;;;;;4388750;32;20070;-34
2021/05/31 06:52:48;;;;;;;3.87;1.70;;;21.60;45.50;;;;;;4388731;32;20149;-38
2021/05/31 06:55:15;;;;;;;5.53;2.58;;;21.60;45.70;;;;;;4388650;32;20077;-37
2021/05/31 06:57:43;;;;;;;13.38;3.85;;;21.70;46.00;;;;;;4388378;32;20197;-40
2021/05/31 07:00:14;;;;;;;4.97;2.92;;;21.60;45.60;;;;;;4388500;32;20530;-39
2021/05/31 07:02:41;;;;;;;6.07;2.55;;;21.70;45.80;;;;;;4388774;32;20122;-39
2021/05/31 07:05:09;;;;;;;10.05;3.67;;;21.70;45.50;;;;;;4388238;32;20508;-39
2021/05/31 07:07:36;;;;;;;3.12;1.92;;;21.80;45.70;;;;;;4388739;32;20094;-36
2021/05/31 07:10:08;;;;;;;8.18;4.90;;;21.80;45.30;;;;;;4388054;32;20470;-40
2021/05/31 07:12:35;;;;;;;9.48;4.25;;;21.90;45.50;;;;;;4374884;32;20089;-41
2021/05/31 07:15:04;;;;;;;9.82;3.55;;;22.00;44.90;;;;;;4388244;32;20133;-35
2021/05/31 07:17:33;;;;;;;10.02;4.65;;;22.00;44.60;;;;;;4388293;32;20096;-40
2021/05/31 07:20:00;;;;;;;6.18;2.33;;;22.10;44.50;;;;;;4374403;32;20073;-39
2021/05/31 07:22:27;;;;;;;4.18;2.08;;;22.10;44.70;;;;;;4388213;32;20051;-37
2021/05/31 07:24:53;;;;;;;7.30;3.75;;;22.20;44.90;;;;;;4374469;32;20065;-37
2021/05/31 07:27:20;;;;;;;6.50;2.28;;;22.30;44.70;;;;;;4388152;32;20227;-41
2021/05/31 07:29:47;;;;;;;12.45;5.15;;;22.40;44.20;;;;;;4388496;32;20064;-41
2021/05/31 07:32:14;;;;;;;7.70;3.17;;;22.50;43.80;;;;;;4388406;32;20082;-40
2021/05/31 07:34:41;;;;;;;6.65;3.47;;;22.50;43.80;;;;;;4388406;32;20069;-42
2021/05/31 07:37:07;;;;;;;6.70;3.40;;;22.60;43.80;;;;;;4388543;32;20149;-41
2021/05/31 07:39:34;;;;;;;7.45;3.42;;;22.70;43.30;;;;;;4388049;32;20526;-42
2021/05/31 07:42:00;;;;;;;13.43;4.75;;;22.80;43.40;;;;;;4374045;32;20153;-40
2021/05/31 07:44:27;;;;;;;11.65;5.87;;;22.90;43.10;;;;;;4388153;32;20145;-42
2021/05/31 07:46:53;;;;;;;12.02;3.45;;;23.00;42.70;;;;;;4402888;32;20080;-39
2021/05/31 07:49:20;;;;;;;9.73;3.80;;;22.90;42.70;;;;;;4403077;32;20162;-39
2021/05/31 07:51:47;;;;;;;8.82;4.43;;;23.00;42.60;;;;;;4402947;32;20069;-40
2021/05/31 07:54:15;;;;;;;7.60;3.60;;;23.10;42.60;;;;;;4402669;32;20542;-42
2021/05/31 07:56:41;;;;;;;7.60;3.75;;;23.20;42.50;;;;;;4389266;32;20065;-41
2021/05/31 07:59:08;;;;;;;8.10;3.00;;;23.20;42.50;;;;;;4389408;32;20076;-40
2021/05/31 08:01:35;;;;;;;4.40;2.15;;;23.30;42.60;;;;;;4402660;32;20558;-41
2021/05/31 08:04:05;;;;;;;5.25;3.12;;;23.40;42.30;;;;;;4388725;32;20057;-42
2021/05/31 08:06:34;;;;;;;4.40;2.85;;;23.40;42.10;;;;;;4402733;32;20454;-40
2021/05/31 08:09:01;;;;;;;8.70;3.62;;;23.50;42.00;;;;;;4402669;32;20070;-41
2021/05/31 08:11:28;;;;;;;5.80;2.42;;;23.40;42.00;;;;;;4402722;32;20054;-40
2021/05/31 08:13:54;;;;;;;5.72;3.45;;;23.30;42.80;;;;;;4402736;32;20076;-39
2021/05/31 08:16:21;;;;;;;4.18;2.83;;;23.30;42.20;;;;;;4402898;32;20093;-39
2021/05/31 08:18:47;;;;;;;4.28;2.95;;;23.30;42.30;;;;;;4402855;32;20073;-40
2021/05/31 08:21:14;;;;;;;6.87;3.58;;;23.40;42.40;;;;;;4402603;32;20065;-41
2021/05/31 08:23:40;;;;;;;6.35;2.45;;;23.40;43.10;;;;;;4402886;32;20080;-41
2021/05/31 08:26:07;;;;;;;4.90;2.53;;;23.50;42.20;;;;;;4402711;32;20196;-40
2021/05/31 08:28:36;;;;;;;1.75;0.90;;;23.50;41.80;;;;;;4402727;32;20537;-41
2021/05/31 08:31:03;;;;;;;7.62;4.20;;;23.50;42.00;;;;;;4402789;32;20053;-40
2021/05/31 08:33:30;;;;;;;2.53;1.55;;;23.60;42.10;;;;;;4388578;32;20068;-41
2021/05/31 08:35:56;;;;;;;4.95;2.55;;;23.70;41.80;;;;;;4402584;32;20469;-41
2021/05/31 08:38:23;;;;;;;4.35;2.85;;;23.80;41.90;;;;;;4403031;32;20076;-39
2021/05/31 08:40:49;;;;;;;5.53;3.72;;;24.00;41.80;;;;;;4402241;32;20605;-38
2021/05/31 08:43:16;;;;;;;6.87;5.07;;;24.10;41.00;;;;;;4402859;32;20073;-42
2021/05/31 08:45:42;;;;;;;3.30;1.75;;;24.20;41.20;;;;;;4394574;32;20058;-40
2021/05/31 08:48:10;;;;;;;5.45;1.95;;;24.30;40.40;;;;;;4387117;32;20435;-40
2021/05/31 08:50:37;;;;;;;10.00;3.17;;;24.30;40.00;;;;;;4387452;32;20121;-41
2021/05/31 08:53:03;;;;;;;3.22;2.72;;;24.30;40.10;;;;;;4387331;32;20162;-39
2021/05/31 08:55:31;;;;;;;11.10;6.30;;;24.40;40.40;;;;;;4373181;32;20090;-41
2021/05/31 08:57:57;;;;;;;4.37;2.20;;;24.50;40.50;;;;;;4373573;32;20070;-40
2021/05/31 09:00:27;;;;;;;2.78;1.62;;;24.60;40.10;;;;;;4387085;32;20050;-40
2021/05/31 09:02:57;;;;;;;5.25;2.40;;;24.60;39.70;;;;;;4387792;32;20134;-36
2021/05/31 09:05:39;;;;;;;4.03;2.35;;;24.70;39.70;;;;;;4389737;32;20078;-39
2021/05/31 09:08:17;;;;;;;2.55;1.85;;;24.80;39.70;;;;;;4389795;32;20080;-38
2021/05/31 09:11:07;;;;;;;7.55;4.10;;;24.80;39.40;;;;;;4376339;32;20495;-40
2021/05/31 09:13:42;;;;;;;3.35;2.17;;;24.80;39.40;;;;;;4390295;32;20068;-40
2021/05/31 09:16:21;;;;;;;3.95;2.03;;;24.70;39.70;;;;;;4390020;32;20054;-41
2021/05/31 09:18:52;;;;;;;2.37;1.75;;;24.80;39.50;;;;;;4390566;32;20073;-41
2021/05/31 09:21:27;;;;;;;3.67;1.98;;;24.80;39.60;;;;;;4390143;32;20054;-39
2021/05/31 09:24:08;;;;;;;4.57;3.25;;;24.80;39.70;;;;;;4390078;32;20592;-43
2021/05/31 09:26:52;;;;;;;5.82;3.03;;;25.00;39.10;;;;;;4364287;32;20065;-41
2021/05/31 09:29:20;;;;;;;1.33;1.00;;;25.00;39.00;;;;;;4389498;32;20534;-40
2021/05/31 09:31:57;;;;;;;3.92;1.33;;;25.00;39.20;;;;;;4389843;32;20077;-41
2021/05/31 09:34:24;;;;;;;7.22;2.62;;;25.00;39.10;;;;;;4389478;32;20165;-41
2021/05/31 09:36:53;;;;;;;2.22;1.27;;;25.20;39.00;;;;;;4390172;32;20061;-41
2021/05/31 09:39:34;;;;;;;5.78;3.25;;;25.30;39.10;;;;;;4389449;32;20616;-40
2021/05/31 09:42:12;;;;;;;4.03;2.33;;;25.40;38.90;;;;;;4375821;32;20096;-41
2021/05/31 09:44:43;;;;;;;6.47;2.60;;;25.60;38.90;;;;;;4391163;32;20109;-40
2021/05/31 09:47:11;;;;;;;6.05;3.15;;;25.50;38.10;;;;;;4405138;32;20536;-41
2021/05/31 09:49:38;;;;;;;5.30;2.78;;;25.60;38.00;;;;;;4404503;32;20525;-39
2021/05/31 09:52:07;;;;;;;3.85;1.73;;;25.60;37.90;;;;;;4404709;32;20062;-40
2021/05/31 09:54:40;;;;;;;2.35;1.25;;;25.60;38.00;;;;;;4404477;32;20073;-40
2021/05/31 09:57:21;;;;;;;2.60;1.00;;;25.60;37.60;;;;;;4404671;32;20068;-42
2021/05/31 10:00:06;;;;;;;5.12;3.00;;;25.70;38.00;;;;;;4404876;32;20457;-42
2021/05/31 10:03:01;;;;;;;3.87;2.17;;;25.80;38.00;;;;;;4404993;32;20154;-41
2021/05/31 10:10:42;;;;;;;2.65;1.90;;;26.00;37.30;;;;;;4404200;32;20100;-43
2021/05/31 10:13:09;;;;;;;3.83;1.40;;;26.10;36.90;;;;;;4404479;32;20075;-43
2021/05/31 10:15:41;;;;;;;3.92;2.03;;;26.10;37.00;;;;;;4403165;32;20089;-40
2021/05/31 10:18:10;;;;;;;2.40;1.08;;;26.10;36.90;;;;;;4404496;32;20502;-42
2021/05/31 10:20:37;;;;;;;4.07;2.92;;;26.00;36.50;;;;;;4404186;32;20156;-44
2021/05/31 10:23:04;;;;;;;2.70;1.90;;;26.10;37.50;;;;;;4390743;32;20502;-41
2021/05/31 10:25:31;;;;;;;3.45;1.25;;;26.10;36.70;;;;;;4390284;32;20591;-43
2021/05/31 10:30:45;;;;;;;4.85;2.25;;;26.00;37.00;;;;;;4412234;27;20070;-37
2021/05/31 10:33:22;;;;;;;2.33;1.45;;;26.10;37.20;;;;;;4374266;32;20074;-36
2021/05/31 10:35:49;;;;;;;2.15;1.05;;;26.10;37.30;;;;;;4362359;32;20070;-36
2021/05/31 10:38:21;;;;;;;3.20;1.40;;;26.00;36.70;;;;;;4359221;32;20096;-34
2021/05/31 10:40:50;;;;;;;1.15;0.80;;;26.00;37.00;;;;;;4359259;32;20097;-37
2021/05/31 10:43:19;;;;;;;1.60;1.00;;;26.10;37.30;;;;;;4359129;32;20583;-36
2021/05/31 10:45:47;;;;;;;3.40;1.65;;;26.20;37.00;;;;;;4359274;32;20130;-37
2021/05/31 10:48:20;;;;;;;5.53;2.17;;;26.30;36.90;;;;;;4371817;32;20518;-36
2021/05/31 10:50:58;;;;;;;5.03;1.12;;;26.40;36.90;;;;;;4373473;32;20114;-36
2021/05/31 10:53:30;;;;;;;1.77;0.70;;;26.50;36.90;;;;;;4373431;32;20064;-37
2021/05/31 10:56:17;;;;;;;3.55;2.40;;;26.50;36.20;;;;;;4360139;32;20070;-38
2021/05/31 10:58:50;;;;;;;2.72;1.73;;;26.60;36.60;;;;;;4373293;32;20138;-37
2021/05/31 11:01:26;;;;;;;2.87;2.35;;;26.60;36.20;;;;;;4373662;32;20133;-38
2021/05/31 11:04:22;;;;;;;2.65;1.98;;;26.70;36.40;;;;;;4373317;32;20055;-36
2021/05/31 11:06:53;;;;;;;5.70;1.58;;;26.70;36.30;;;;;;4373515;32;20092;-37
2021/05/31 11:09:29;;;;;;;2.40;1.42;;;26.80;36.70;;;;;;4373715;32;20109;-36
2021/05/31 11:12:00;;;;;;;4.30;1.50;;;26.80;36.30;;;;;;4373447;32;20082;-35
2021/05/31 11:14:36;;;;;;;1.48;1.10;;;26.80;36.40;;;;;;4373836;32;20105;-36
2021/05/31 11:17:11;;;;;;;3.62;1.67;;;26.80;36.20;;;;;;4373299;32;20090;-36
2021/05/31 11:19:52;;;;;;;0.85;0.65;;;26.80;36.40;;;;;;4373231;32;20156;-37
2021/05/31 11:22:30;;;;;;;1.83;0.88;;;26.80;36.40;;;;;;4373102;32;20073;-34
2021/05/31 11:25:08;;;;;;;2.30;1.10;;;26.80;36.30;;;;;;4359078;32;20074;-34
2021/05/31 11:27:38;;;;;;;11.98;1.12;;;26.80;36.30;;;;;;4358042;32;20704;-34
2021/05/31 11:30:15;;;;;;;2.33;1.08;;;26.80;36.40;;;;;;4355907;32;20055;-34
2021/05/31 11:32:41;;;;;;;1.73;0.80;;;26.80;36.30;;;;;;4343191;32;20097;-35
2021/05/31 11:35:12;;;;;;;3.60;0.75;;;26.80;36.40;;;;;;4329628;33;20518;-35
2021/05/31 11:37:40;;;;;;;4.18;2.10;;;26.70;36.30;;;;;;4343506;33;20055;-37
2021/05/31 11:40:23;;;;;;;3.55;1.00;;;26.80;36.50;;;;;;4343398;32;20499;-34
2021/05/31 11:43:01;;;;;;;1.98;1.25;;;26.80;36.90;;;;;;4343317;32;20090;-36
2021/05/31 11:45:34;;;;;;;1.55;1.02;;;26.70;36.70;;;;;;4343199;32;20482;-35
2021/05/31 11:48:17;;;;;;;3.53;1.00;;;26.70;36.60;;;;;;4343522;32;20081;-38
2021/05/31 11:50:47;;;;;;;4.50;1.75;;;26.80;36.50;;;;;;4342785;32;20565;-36
2021/05/31 11:53:15;;;;;;;2.05;1.55;;;26.70;36.40;;;;;;4342804;32;20067;-35
2021/05/31 11:55:42;;;;;;;1.27;1.02;;;26.80;36.50;;;;;;4343161;33;20171;-36
2021/05/31 11:58:10;;;;;;;3.08;2.10;;;26.80;36.40;;;;;;4328732;33;20070;-37
2021/05/31 12:00:42;;;;;;;3.70;1.00;;;27.00;36.90;;;;;;4329377;33;20151;-43
2021/05/31 12:03:23;;;;;;;4.72;1.42;;;27.10;37.00;;;;;;4343122;33;20071;-35
2021/05/31 12:05:49;;;;;;;1.48;0.88;;;27.10;36.40;;;;;;4342746;32;20055;-36
2021/05/31 12:08:16;;;;;;;1.27;0.70;;;27.10;36.00;;;;;;4343070;33;20050;-36
2021/05/31 12:10:44;;;;;;;2.62;1.00;;;27.10;36.10;;;;;;4343075;32;20195;-35
2021/05/31 12:13:11;;;;;;;1.65;1.20;;;27.10;36.00;;;;;;4342935;32;20067;-35
2021/05/31 12:15:38;;;;;;;0.98;0.60;;;27.10;36.20;;;;;;4342887;32;20064;-36
2021/05/31 12:18:16;;;;;;;1.33;0.70;;;27.00;36.30;;;;;;4296042;33;20165;-41
2021/05/31 12:20:43;;;;;;;2.12;1.65;;;27.00;36.40;;;;;;4284421;33;20467;-37
2021/05/31 12:23:20;;;;;;;1.87;1.33;;;27.10;36.20;;;;;;4299414;33;20068;-37
2021/05/31 12:25:48;;;;;;;3.00;0.90;;;27.20;36.70;;;;;;4310388;33;20573;-36
2021/05/31 12:28:15;;;;;;;0.62;0.60;;;27.20;36.60;;;;;;4310893;33;20237;-37
2021/05/31 12:30:51;;;;;;;2.35;1.25;;;27.20;36.30;;;;;;4310342;33;20078;-37
2021/05/31 12:33:18;;;;;;;1.40;0.70;;;27.20;36.30;;;;;;4299075;33;20053;-36
2021/05/31 12:35:45;;;;;;;2.08;1.30;;;27.20;35.90;;;;;;4311030;33;20105;-37
2021/05/31 12:38:12;;;;;;;4.62;1.73;;;27.20;36.10;;;;;;4312180;33;20539;-37
2021/05/31 12:40:41;;;;;;;5.53;0.60;;;27.30;36.70;;;;;;4313743;33;20604;-36
2021/05/31 12:43:08;;;;;;;1.20;0.60;;;27.30;36.20;;;;;;4313568;33;20525;-37
2021/05/31 12:45:48;;;;;;;2.55;1.00;;;27.20;36.10;;;;;;4313474;33;20167;-37
2021/05/31 12:48:20;;;;;;;1.98;0.90;;;27.20;36.10;;;;;;4320891;32;20540;-37
2021/05/31 12:50:57;;;;;;;2.53;0.80;;;27.20;36.10;;;;;;4360477;32;20055;-39
2021/05/31 12:53:27;;;;;;;2.10;0.80;;;27.30;36.20;;;;;;4360172;32;20086;-37
2021/05/31 12:56:00;;;;;;;2.55;0.70;;;27.20;36.10;;;;;;4360230;32;20466;-37
2021/05/31 12:58:26;;;;;;;4.43;1.12;;;27.20;36.10;;;;;;4360485;32;20058;-36
2021/05/31 13:00:53;;;;;;;2.17;0.90;;;27.20;36.30;;;;;;4359962;32;20066;-37
2021/05/31 13:03:20;;;;;;;1.25;1.05;;;27.20;36.30;;;;;;4360311;32;20155;-36
2021/05/31 13:05:51;;;;;;;3.60;2.08;;;27.20;36.10;;;;;;4359841;32;20169;-38
2021/05/31 13:08:19;;;;;;;1.92;1.73;;;27.20;36.10;;;;;;4359973;32;20054;-36
2021/05/31 13:10:48;;;;;;;3.97;0.95;;;27.30;36.30;;;;;;4360031;32;20540;-37
2021/05/31 13:13:19;;;;;;;3.75;1.20;;;27.20;36.30;;;;;;4360228;32;20512;-35
2021/05/31 13:15:56;;;;;;;4.45;0.95;;;27.20;36.00;;;;;;4360073;32;20066;-36